createdAt,value
2022-10-12T00:00:21.570Z,77703.94
2022-10-12T00:03:08.587Z,77707.97
2022-10-12T00:05:35.497Z,77705.94
2022-10-12T00:08:02.600Z,77707.97
2022-10-12T00:10:29.510Z,77714.06
2022-10-12T00:12:56.789Z,77712.03
2022-10-12T00:15:24.085Z,77716.09
2022-10-12T00:17:51.054Z,77712.03
2022-10-12T00:20:17.960Z,77712.03
2022-10-12T00:22:45.065Z,77720.16
2022-10-12T00:25:11.881Z,77720.16
2022-10-12T00:27:39.119Z,77718.13
2022-10-12T00:30:07.075Z,77720.16
2022-10-12T00:32:33.966Z,77728.25
2022-10-12T00:35:00.967Z,77732.31
2022-10-12T00:37:28.163Z,77732.31
2022-10-12T00:39:55.266Z,77740.44
2022-10-12T00:42:22.280Z,77734.34
2022-10-12T00:44:50.869Z,77736.38
2022-10-12T00:47:34.118Z,77744.47
2022-10-12T00:50:04.351Z,77740.44
2022-10-12T00:52:59.338Z,77742.44
2022-10-12T00:55:30.304Z,77748.53
2022-10-12T00:57:58.146Z,77748.53
2022-10-12T01:00:26.157Z,77744.47
2022-10-12T01:02:54.928Z,77764.75
2022-10-12T01:05:23.096Z,77764.75
2022-10-12T01:07:50.478Z,77764.75
2022-10-12T01:10:18.169Z,77772.88
2022-10-12T01:12:49.424Z,77772.88
2022-10-12T01:15:16.879Z,77772.88
2022-10-12T01:18:02.745Z,77772.88
2022-10-12T01:20:41.762Z,77768.81
2022-10-12T01:23:18.890Z,77780.97
2022-10-12T01:26:07.582Z,77780.97
2022-10-12T01:28:45.895Z,77789.09
2022-10-12T01:31:44.236Z,77789.09
2022-10-12T01:34:37.405Z,77793.16
2022-10-12T01:37:21.904Z,77789.09
2022-10-12T01:39:59.061Z,77793.16
2022-10-12T01:42:33.024Z,77797.19
2022-10-12T01:45:09.417Z,77805.31
2022-10-12T01:47:39.987Z,77805.31
2022-10-12T01:50:11.105Z,77801.25
2022-10-12T01:53:07.401Z,77809.38
2022-10-12T01:55:42.488Z,77813.44
2022-10-12T01:58:15.667Z,77817.47
2022-10-12T02:01:09.187Z,77821.53
2022-10-12T02:03:45.396Z,77821.53
2022-10-12T02:06:16.886Z,77821.53
2022-10-12T02:09:02.643Z,77825.59
2022-10-12T02:11:34.005Z,77825.59
2022-10-12T02:14:16.946Z,77829.66
2022-10-12T02:16:49.842Z,77833.69
2022-10-12T02:19:22.050Z,77841.81
2022-10-12T02:21:50.678Z,77839.78
2022-10-12T02:24:18.945Z,77841.81
2022-10-12T02:26:49.912Z,77845.88
2022-10-12T02:29:25.990Z,77837.75
2022-10-12T02:32:00.240Z,77845.88
2022-10-12T02:34:36.360Z,77845.88
2022-10-12T02:37:12.103Z,77849.94
2022-10-12T02:39:49.794Z,77853.97
2022-10-12T02:42:27.209Z,77849.94
2022-10-12T02:44:58.433Z,77849.94
2022-10-12T02:47:28.841Z,77858.03
2022-10-12T02:49:56.694Z,77858.03
2022-10-12T02:52:24.707Z,77866.16
2022-10-12T02:54:51.792Z,77862.09
2022-10-12T02:57:18.693Z,77870.22
2022-10-12T02:59:45.716Z,77870.22
2022-10-12T03:02:12.875Z,77870.22
2022-10-12T03:04:39.748Z,77866.16
2022-10-12T03:07:06.609Z,77864.13
2022-10-12T03:09:33.661Z,77866.16
2022-10-12T03:12:00.667Z,77866.16
2022-10-12T03:14:27.701Z,77866.16
2022-10-12T03:16:54.922Z,77866.16
2022-10-12T03:19:21.823Z,77870.22
2022-10-12T03:21:48.881Z,77874.25
2022-10-12T03:24:16.024Z,77874.25
2022-10-12T03:26:42.908Z,77878.31
2022-10-12T03:29:09.870Z,77878.31
2022-10-12T03:31:36.967Z,77882.38
2022-10-12T03:34:04.151Z,77878.31
2022-10-12T03:36:31.245Z,77878.31
2022-10-12T03:38:58.536Z,77878.31
2022-10-12T03:41:25.397Z,77884.41
2022-10-12T03:43:52.512Z,77882.38
2022-10-12T03:46:19.349Z,77886.44
2022-10-12T03:48:47.148Z,77890.47
2022-10-12T03:51:14.071Z,77890.47
2022-10-12T03:53:45.404Z,77898.59
2022-10-12T03:56:12.964Z,77894.53
2022-10-12T03:58:40.159Z,77898.59
2022-10-12T04:01:07.183Z,77898.59
2022-10-12T04:03:34.340Z,77902.66
2022-10-12T04:06:01.210Z,77902.66
2022-10-12T04:08:28.595Z,77906.72
2022-10-12T04:10:56.157Z,77910.75
2022-10-12T04:13:23.447Z,77910.75
2022-10-12T04:15:50.936Z,77910.75
2022-10-12T04:18:18.309Z,77910.75
2022-10-12T04:20:48.589Z,77910.75
2022-10-12T04:23:15.769Z,77914.81
2022-10-12T04:25:42.964Z,77914.81
2022-10-12T04:28:10.044Z,77916.84
2022-10-12T04:30:36.940Z,77918.88
2022-10-12T04:33:04.697Z,77918.88
2022-10-12T04:35:32.095Z,77918.88
2022-10-12T04:37:59.630Z,77918.88
2022-10-12T04:40:26.521Z,77922.94
2022-10-12T04:42:53.657Z,77918.88
2022-10-12T04:45:20.781Z,77918.88
2022-10-12T04:47:48.320Z,77922.94
2022-10-12T04:50:15.418Z,77926.97
2022-10-12T04:52:42.754Z,77931.03
2022-10-12T04:55:09.904Z,77935.09
2022-10-12T04:57:37.365Z,77933.06
2022-10-12T05:00:06.130Z,77941.19
2022-10-12T05:02:33.584Z,77941.19
2022-10-12T05:05:00.867Z,77947.25
2022-10-12T05:07:28.346Z,77955.38
2022-10-12T05:09:55.569Z,77951.31
2022-10-12T05:12:23.061Z,77953.34
2022-10-12T05:14:50.171Z,77955.38
2022-10-12T05:17:17.134Z,77959.44
2022-10-12T05:19:44.279Z,77951.31
2022-10-12T05:22:11.375Z,77947.25
2022-10-12T05:24:38.584Z,77947.25
2022-10-12T05:27:05.749Z,77943.22
2022-10-12T05:29:32.980Z,77951.31
2022-10-12T05:31:59.958Z,77949.28
2022-10-12T05:34:27.113Z,77947.25
2022-10-12T05:36:53.996Z,77939.16
2022-10-12T05:39:21.254Z,77935.09
2022-10-12T05:41:48.122Z,77935.09
2022-10-12T05:44:15.160Z,77935.09
2022-10-12T05:46:42.471Z,77931.03
2022-10-12T05:49:09.581Z,77931.03
2022-10-12T05:51:38.765Z,77933.06
2022-10-12T05:54:05.920Z,77929.00
2022-10-12T05:56:33.050Z,77935.09
2022-10-12T05:59:00.205Z,77935.09
2022-10-12T06:01:27.250Z,77926.97
2022-10-12T06:03:55.100Z,77922.94
2022-10-12T06:06:23.016Z,77929.00
2022-10-12T06:08:50.158Z,77922.94
2022-10-12T06:11:17.137Z,77922.94
2022-10-12T06:13:44.378Z,77918.88
2022-10-12T06:16:11.461Z,77906.72
2022-10-12T06:18:39.058Z,77896.56
2022-10-12T06:21:28.892Z,77886.44
2022-10-12T06:23:53.802Z,77882.38
2022-10-12T06:26:24.990Z,77874.25
2022-10-12T06:28:52.413Z,77874.25
2022-10-12T06:31:19.417Z,77866.16
2022-10-12T06:33:46.497Z,77858.03
2022-10-12T06:36:13.606Z,77845.88
2022-10-12T06:38:40.693Z,77837.75
2022-10-12T06:41:07.949Z,77829.66
2022-10-12T06:43:35.151Z,77817.47
2022-10-12T06:46:02.889Z,77809.38
2022-10-12T06:48:30.679Z,77799.22
2022-10-12T06:50:58.254Z,77789.09
2022-10-12T06:53:28.765Z,77778.94
2022-10-12T06:55:55.780Z,77776.94
2022-10-12T06:58:23.202Z,77764.75
2022-10-12T07:00:50.129Z,77756.66
2022-10-12T07:03:17.769Z,77746.50
2022-10-12T07:05:44.832Z,77736.38
2022-10-12T07:08:12.007Z,77728.25
2022-10-12T07:10:39.100Z,77718.13
2022-10-12T07:13:06.377Z,77707.97
2022-10-12T07:15:33.693Z,77691.75
2022-10-12T07:18:00.870Z,77691.75
2022-10-12T07:20:27.800Z,77677.56
2022-10-12T07:22:54.944Z,77671.47
2022-10-12T07:25:22.409Z,77667.44
2022-10-12T07:27:49.683Z,77653.22
2022-10-12T07:30:16.838Z,77639.03
2022-10-12T07:32:46.127Z,77630.94
2022-10-12T07:35:13.165Z,77620.78
2022-10-12T07:37:40.863Z,77606.59
2022-10-12T07:40:08.636Z,77594.44
2022-10-12T07:42:35.565Z,77582.25
2022-10-12T07:45:02.695Z,77570.09
2022-10-12T07:47:29.734Z,77557.94
2022-10-12T07:49:57.318Z,77545.75
2022-10-12T07:52:24.277Z,77533.59
2022-10-12T07:54:51.374Z,77527.50
2022-10-12T07:57:18.601Z,77511.28
2022-10-12T07:59:46.711Z,77501.16
2022-10-12T08:02:13.951Z,77493.03
2022-10-12T08:04:41.399Z,77484.94
2022-10-12T08:07:08.372Z,77480.88
2022-10-12T08:09:36.321Z,77468.72
2022-10-12T08:12:04.238Z,77460.59
2022-10-12T08:14:31.624Z,77456.53
2022-10-12T08:16:58.665Z,77456.53
2022-10-12T08:19:25.958Z,77452.50
2022-10-12T08:21:52.987Z,77452.50
2022-10-12T08:24:20.268Z,77440.31
2022-10-12T08:26:47.172Z,77436.28
2022-10-12T08:29:14.483Z,77428.16
2022-10-12T08:31:41.494Z,77424.09
2022-10-12T08:34:08.693Z,77411.94
2022-10-12T08:36:35.661Z,77403.84
2022-10-12T08:39:06.770Z,77387.59
2022-10-12T08:41:45.715Z,77375.44
2022-10-12T08:44:20.091Z,77367.34
2022-10-12T08:46:47.837Z,77355.16
2022-10-12T08:49:18.769Z,77351.13
2022-10-12T08:51:53.789Z,77347.06
2022-10-12T08:54:23.412Z,77330.84
2022-10-12T08:56:54.300Z,77306.50
2022-10-12T08:59:22.828Z,77278.13
2022-10-12T09:02:00.548Z,77257.84
2022-10-12T09:04:42.925Z,77249.75
2022-10-12T09:07:24.620Z,77249.75
2022-10-12T09:09:51.894Z,77233.53
2022-10-12T09:12:31.456Z,77213.25
2022-10-12T09:15:04.136Z,77213.25
2022-10-12T09:17:44.016Z,77192.97
2022-10-12T09:20:32.295Z,77192.97
2022-10-12T09:23:12.344Z,77201.06
2022-10-12T09:25:40.318Z,77168.63
2022-10-12T09:28:37.765Z,77160.53
2022-10-12T09:31:10.918Z,77152.41
2022-10-12T09:33:48.118Z,77148.38
2022-10-12T09:36:20.509Z,77148.38
2022-10-12T09:38:49.753Z,77128.09
2022-10-12T09:41:22.379Z,77132.16
2022-10-12T09:43:55.486Z,77130.13
2022-10-12T09:46:40.153Z,77134.16
2022-10-12T09:49:07.330Z,77115.94
2022-10-12T09:51:35.592Z,77124.03
2022-10-12T09:54:04.527Z,77111.88
2022-10-12T09:56:44.586Z,77107.81
2022-10-12T09:59:33.158Z,77103.75
2022-10-12T10:02:20.198Z,77101.72
2022-10-12T10:04:49.240Z,77091.59
2022-10-12T10:07:31.415Z,77071.31
2022-10-12T10:10:29.761Z,77067.28
2022-10-12T10:13:03.102Z,77059.16
2022-10-12T10:15:35.808Z,77059.16
2022-10-12T10:18:08.014Z,77067.28
2022-10-12T10:20:59.018Z,77051.06
2022-10-12T10:23:32.758Z,77044.97
2022-10-12T10:26:08.092Z,77038.88
2022-10-12T10:28:37.864Z,77030.78
2022-10-12T10:31:17.163Z,77022.66
2022-10-12T10:33:44.502Z,77012.53
2022-10-12T10:36:18.596Z,77008.47
2022-10-12T10:39:01.100Z,76998.34
2022-10-12T10:41:36.860Z,76998.34
2022-10-12T10:44:05.599Z,76982.13
2022-10-12T10:46:36.482Z,76969.94
2022-10-12T10:49:07.538Z,76969.94
2022-10-12T10:51:46.913Z,76965.91
2022-10-12T10:54:41.145Z,76965.91
2022-10-12T10:57:19.063Z,76953.75
2022-10-12T11:00:02.177Z,76955.75
2022-10-12T11:03:01.268Z,76955.75
2022-10-12T11:05:48.453Z,76949.69
2022-10-12T11:08:43.735Z,76947.66
2022-10-12T11:11:23.642Z,76931.44
2022-10-12T11:14:00.705Z,76945.63
2022-10-12T11:16:34.475Z,76951.72
2022-10-12T11:19:21.139Z,76945.63
2022-10-12T11:21:55.651Z,76929.41
2022-10-12T11:25:03.165Z,76913.19
2022-10-12T11:27:34.694Z,76909.13
2022-10-12T11:30:10.160Z,76896.97
2022-10-12T11:32:51.361Z,76896.97
2022-10-12T11:35:32.513Z,76888.88
2022-10-12T11:38:05.273Z,76880.75
2022-10-12T11:43:36.143Z,76888.88
2022-10-12T11:46:08.206Z,76884.81
2022-10-12T11:48:45.007Z,76872.66
2022-10-12T11:51:12.493Z,76868.59
2022-10-12T11:53:56.759Z,76864.53
2022-10-12T11:56:31.816Z,76846.28
2022-10-12T11:59:05.567Z,76844.25
2022-10-12T12:02:13.989Z,76836.16
2022-10-12T12:04:46.192Z,76828.03
2022-10-12T12:07:43.514Z,76819.94
2022-10-12T12:10:31.231Z,76807.78
2022-10-12T12:13:13.402Z,76797.63
2022-10-12T12:15:43.305Z,76799.66
2022-10-12T12:18:17.437Z,76799.66
2022-10-12T12:20:44.363Z,76795.59
2022-10-12T12:23:35.907Z,76799.66
2022-10-12T12:26:28.635Z,76811.81
2022-10-12T12:29:20.306Z,76803.72
2022-10-12T12:31:56.346Z,76779.38
2022-10-12T12:34:23.735Z,76767.22
2022-10-12T12:36:52.190Z,76746.97
2022-10-12T12:39:30.704Z,76730.75
2022-10-12T12:42:04.282Z,76734.78
2022-10-12T12:44:37.377Z,76738.84
2022-10-12T12:47:20.531Z,76738.84
2022-10-12T12:50:01.216Z,76738.84
2022-10-12T12:52:39.892Z,76726.69
2022-10-12T12:55:16.437Z,76738.84
2022-10-12T12:58:13.976Z,76755.06
2022-10-12T13:01:05.276Z,76767.22
2022-10-12T13:03:56.665Z,76771.28
2022-10-12T13:06:39.111Z,76771.28
2022-10-12T13:09:29.596Z,76775.34
2022-10-12T13:12:41.705Z,76771.28
2022-10-12T13:15:36.596Z,76767.22
2022-10-12T13:18:45.294Z,76785.47
2022-10-12T13:21:25.174Z,76795.59
2022-10-12T13:24:18.609Z,76824.00
2022-10-12T13:26:48.778Z,76836.16
2022-10-12T13:29:39.743Z,76836.16
2022-10-12T13:32:18.676Z,76834.13
2022-10-12T13:34:49.441Z,76848.31
2022-10-12T13:37:17.015Z,76848.31
2022-10-12T13:39:47.099Z,76856.44
2022-10-12T13:42:21.261Z,76852.38
2022-10-12T13:44:48.815Z,76868.59
2022-10-12T13:47:26.809Z,76868.59
2022-10-12T13:49:54.994Z,76876.69
2022-10-12T13:52:32.604Z,76880.75
2022-10-12T13:55:01.740Z,76876.69
2022-10-12T13:57:47.608Z,76884.81
2022-10-12T14:00:26.298Z,76878.72
2022-10-12T14:03:02.222Z,76864.53
2022-10-12T14:05:31.594Z,76840.22
2022-10-12T14:08:07.058Z,76828.03
2022-10-12T14:10:37.245Z,76819.94
2022-10-12T14:13:05.782Z,76819.94
2022-10-12T14:15:38.822Z,76815.88
2022-10-12T14:18:32.948Z,76821.97
2022-10-12T14:21:15.420Z,76832.09
2022-10-12T14:23:48.898Z,76840.22
2022-10-12T14:26:32.470Z,76856.44
2022-10-12T14:29:00.450Z,76864.53
2022-10-12T14:31:48.802Z,76878.72
2022-10-12T14:34:28.138Z,76880.75
2022-10-12T14:37:10.379Z,76884.81
2022-10-12T14:39:38.499Z,76892.91
2022-10-12T14:42:28.472Z,76894.94
2022-10-12T14:44:55.938Z,76894.94
2022-10-12T14:47:26.980Z,76901.03
2022-10-12T14:49:55.672Z,76901.03
2022-10-12T14:52:45.111Z,76901.03
2022-10-12T14:55:16.634Z,76901.03
2022-10-12T14:57:44.742Z,76901.03
2022-10-12T15:00:22.747Z,76901.03
2022-10-12T15:02:50.765Z,76905.09
2022-10-12T15:05:21.466Z,76909.13
2022-10-12T15:07:49.749Z,76911.16
2022-10-12T15:10:19.778Z,76917.25
2022-10-12T15:12:47.029Z,76921.31
2022-10-12T15:15:46.836Z,76925.34
2022-10-12T15:18:15.039Z,76929.41
2022-10-12T15:20:46.750Z,76935.50
2022-10-12T15:23:16.501Z,76937.53
2022-10-12T15:25:56.399Z,76941.56
2022-10-12T15:28:23.895Z,76945.63
2022-10-12T15:31:15.783Z,76949.69
2022-10-12T15:33:40.310Z,76945.63
2022-10-12T15:36:07.666Z,76949.69
2022-10-12T15:38:35.432Z,76961.84
2022-10-12T15:41:03.051Z,76957.78
2022-10-12T15:43:31.624Z,76969.94
2022-10-12T15:45:59.501Z,76974.00
2022-10-12T15:48:28.491Z,76986.16
2022-10-12T15:50:55.736Z,76986.16
2022-10-12T15:53:24.931Z,76982.13
2022-10-12T15:55:56.055Z,76982.13
2022-10-12T15:58:24.877Z,76978.06
2022-10-12T16:00:52.675Z,76982.13
2022-10-12T16:03:25.605Z,76990.22
2022-10-12T16:05:53.598Z,76994.28
2022-10-12T16:08:21.114Z,76990.22
2022-10-12T16:10:48.563Z,76994.28
2022-10-12T16:13:16.640Z,76994.28
2022-10-12T16:15:44.349Z,76992.25
2022-10-12T16:18:12.342Z,76998.34
2022-10-12T16:20:41.445Z,77006.44
2022-10-12T16:23:14.264Z,77010.50
2022-10-12T16:25:41.466Z,77014.56
2022-10-12T16:28:10.524Z,77016.59
2022-10-12T16:30:40.059Z,77014.56
2022-10-12T16:33:07.366Z,77006.44
2022-10-12T16:35:35.397Z,77014.56
2022-10-12T16:38:02.652Z,77018.63
2022-10-12T16:40:29.811Z,77022.66
2022-10-12T16:42:57.509Z,77024.69
2022-10-12T16:45:25.692Z,77030.78
2022-10-12T16:47:54.039Z,77040.91
2022-10-12T16:50:23.624Z,77034.84
2022-10-12T16:52:51.699Z,77047.00
2022-10-12T16:55:19.720Z,77042.94
2022-10-12T16:57:47.047Z,77047.00
2022-10-12T17:00:17.239Z,77044.97
2022-10-12T17:02:44.390Z,77051.06
2022-10-12T17:05:11.650Z,77057.13
2022-10-12T17:07:38.622Z,77061.19
2022-10-12T17:10:06.392Z,77059.16
2022-10-12T17:12:34.183Z,77067.28
2022-10-12T17:15:01.417Z,77059.16
2022-10-12T17:17:28.685Z,77063.22
2022-10-12T17:19:56.428Z,77071.31
2022-10-12T17:22:23.648Z,77069.28
2022-10-12T17:24:50.862Z,77079.44
2022-10-12T17:27:18.352Z,77079.44
2022-10-12T17:29:46.369Z,77079.44
2022-10-12T17:32:14.005Z,77083.50
2022-10-12T17:34:44.940Z,77089.56
2022-10-12T17:37:14.032Z,77083.50
2022-10-12T17:39:44.769Z,77089.56
2022-10-12T17:42:12.509Z,77091.59
2022-10-12T17:44:40.496Z,77091.59
2022-10-12T17:47:07.711Z,77091.59
2022-10-12T17:49:35.307Z,77087.53
2022-10-12T17:52:02.337Z,77087.53
2022-10-12T17:54:29.750Z,77087.53
2022-10-12T17:56:57.378Z,77087.53
2022-10-12T17:59:25.184Z,77083.50
2022-10-12T18:01:52.970Z,77079.44
2022-10-12T18:04:20.544Z,77091.59
2022-10-12T18:06:48.137Z,77091.59
2022-10-12T18:09:18.360Z,77083.50
2022-10-12T18:11:45.374Z,77083.50
2022-10-12T18:14:13.379Z,77083.50
2022-10-12T18:16:41.184Z,77091.59
2022-10-12T18:19:11.445Z,77099.72
2022-10-12T18:21:39.111Z,77111.88
2022-10-12T18:24:12.288Z,77111.88
2022-10-12T18:26:47.115Z,77119.97
2022-10-12T18:29:18.281Z,77124.03
2022-10-12T18:31:45.482Z,77128.09
2022-10-12T18:34:12.494Z,77124.03
2022-10-12T18:36:41.378Z,77136.19
2022-10-12T18:39:08.747Z,77132.16
2022-10-12T18:41:36.620Z,77142.28
2022-10-12T18:44:03.780Z,77142.28
2022-10-12T18:46:34.116Z,77142.28
2022-10-12T18:49:05.596Z,77152.41
2022-10-12T18:51:36.359Z,77160.53
2022-10-12T18:54:04.220Z,77162.56
2022-10-12T18:56:34.696Z,77168.63
2022-10-12T18:59:02.773Z,77168.63
2022-10-12T19:01:30.550Z,77172.69
2022-10-12T19:03:59.790Z,77176.75
2022-10-12T19:06:30.589Z,77178.78
2022-10-12T19:08:58.846Z,77172.69
2022-10-12T19:11:29.467Z,77172.69
2022-10-12T19:14:04.800Z,77180.81
2022-10-12T19:16:33.333Z,77184.84
2022-10-12T19:19:07.898Z,77182.84
2022-10-12T19:21:35.700Z,77188.91
2022-10-12T19:24:04.212Z,77192.97
2022-10-12T19:26:32.776Z,77205.13
2022-10-12T19:29:00.532Z,77213.25
2022-10-12T19:31:31.226Z,77213.25
2022-10-12T19:34:00.676Z,77215.28
2022-10-12T19:36:29.037Z,77221.34
2022-10-12T19:38:57.533Z,77225.41
2022-10-12T19:41:26.107Z,77231.50
2022-10-12T19:43:53.933Z,77235.53
2022-10-12T19:46:21.721Z,77229.47
2022-10-12T19:48:50.638Z,77233.53
2022-10-12T19:51:19.160Z,77249.75
2022-10-12T19:53:47.045Z,77245.69
2022-10-12T19:56:21.112Z,77253.78
2022-10-12T19:58:50.119Z,77249.75
2022-10-12T20:01:20.388Z,77261.91
2022-10-12T20:03:50.134Z,77274.06
2022-10-12T20:06:18.677Z,77280.16
2022-10-12T20:08:47.381Z,77280.16
2022-10-12T20:11:20.596Z,77282.19
2022-10-12T20:13:51.806Z,77284.22
2022-10-12T20:16:20.697Z,77294.34
2022-10-12T20:18:49.570Z,77306.50
2022-10-12T20:21:19.550Z,77308.53
2022-10-12T20:23:48.006Z,77322.72
2022-10-12T20:26:19.276Z,77338.94
2022-10-12T20:28:46.862Z,77345.03
2022-10-12T20:31:14.332Z,77355.16
2022-10-12T20:33:41.606Z,77371.38
2022-10-12T20:36:11.409Z,77371.38
2022-10-12T20:38:38.910Z,77391.66
2022-10-12T20:41:08.158Z,77397.75
2022-10-12T20:43:41.724Z,77416.00
2022-10-12T20:46:13.170Z,77432.22
2022-10-12T20:48:41.361Z,77440.31
2022-10-12T20:51:10.598Z,77440.31
2022-10-12T20:53:38.301Z,77436.28
2022-10-12T20:56:06.538Z,77440.31
2022-10-12T20:58:33.603Z,77436.28
2022-10-12T21:01:09.608Z,77440.31
2022-10-12T21:03:37.492Z,77440.31
2022-10-12T21:06:07.192Z,77446.41
2022-10-12T21:08:34.762Z,77450.47
2022-10-12T21:11:02.389Z,77454.53
2022-10-12T21:13:30.978Z,77456.53
2022-10-12T21:15:58.576Z,77448.44
2022-10-12T21:18:26.082Z,77458.56
2022-10-12T21:21:08.866Z,77460.59
2022-10-12T21:23:35.944Z,77460.59
2022-10-12T21:26:14.770Z,77460.59
2022-10-12T21:28:42.271Z,77468.72
2022-10-12T21:31:09.791Z,77468.72
2022-10-12T21:33:38.029Z,77468.72
2022-10-12T21:36:10.319Z,77468.72
2022-10-12T21:38:37.846Z,77472.78
2022-10-12T21:41:06.233Z,77489.00
2022-10-12T21:43:34.638Z,77509.25
2022-10-12T21:46:07.638Z,77535.63
2022-10-12T21:48:36.440Z,77545.75
2022-10-12T21:51:05.119Z,77561.97
2022-10-12T21:53:33.967Z,77561.97
2022-10-12T21:56:07.803Z,77557.94
2022-10-12T21:58:34.935Z,77553.88
2022-10-12T22:01:11.005Z,77557.94
2022-10-12T22:03:38.330Z,77559.97
2022-10-12T22:06:06.616Z,77561.97
2022-10-12T22:08:34.026Z,77553.88
2022-10-12T22:11:10.328Z,77559.97
2022-10-12T22:13:38.533Z,77557.94
2022-10-12T22:16:09.442Z,77557.94
2022-10-12T22:18:37.046Z,77561.97
2022-10-12T22:21:13.319Z,77557.94
2022-10-12T22:23:42.653Z,77566.03
2022-10-12T22:26:13.246Z,77561.97
2022-10-12T22:28:46.181Z,77566.03
2022-10-12T22:31:15.940Z,77578.22
2022-10-12T22:33:43.995Z,77574.16
2022-10-12T22:36:13.147Z,77582.25
2022-10-12T22:38:41.026Z,77590.38
2022-10-12T22:41:14.428Z,77606.59
2022-10-12T22:43:49.034Z,77614.69
2022-10-12T22:46:17.184Z,77630.94
2022-10-12T22:48:44.566Z,77643.09
2022-10-12T22:51:18.222Z,77655.25
2022-10-12T22:53:45.223Z,77667.44
2022-10-12T22:56:17.517Z,77683.66
2022-10-12T22:58:48.541Z,77693.78
2022-10-12T23:01:17.407Z,77699.88
2022-10-12T23:03:45.561Z,77705.94
2022-10-12T23:06:15.973Z,77712.03
2022-10-12T23:08:43.536Z,77716.09
2022-10-12T23:11:13.339Z,77720.16
2022-10-12T23:13:41.339Z,77728.25
2022-10-12T23:16:15.728Z,77730.28
2022-10-12T23:18:43.163Z,77732.31
2022-10-12T23:21:12.560Z,77736.38
2022-10-12T23:23:40.858Z,77732.31
2022-10-12T23:26:11.496Z,77728.25
2022-10-12T23:28:39.267Z,77728.25
2022-10-12T23:31:13.268Z,77728.25
2022-10-12T23:33:41.584Z,77726.22
2022-10-12T23:36:12.470Z,77720.16
2022-10-12T23:38:41.315Z,77714.06
2022-10-12T23:41:09.003Z,77710.00
2022-10-12T23:43:36.827Z,77703.94
2022-10-12T23:46:05.203Z,77699.88
2022-10-12T23:48:34.378Z,77695.81
2022-10-12T23:51:01.289Z,77695.81
2022-10-12T23:53:28.775Z,77693.78
2022-10-12T23:55:56.066Z,77687.69
2022-10-12T23:58:23.343Z,77691.75
